Terminal Aerodrome Forecast
Issued by NWS

Home | Current Version | Previous Version | Text Only | Print | Product List | Glossary On
Versions: 1 2 3 4 5 6 7 8 9 10 11 12 13 14 15 16 17 18 19 20 21 22 23 24 25 26 27 28 29 30 31 32 33 34 35 36 37 38 39 40 41 42 43 44 45 46 47 48 49 50
000
FTUS45 KBOU 281913 AAA
TAFAPA
TAF AMD
KAPA 281913Z 2819/2918 10012KT P6SM -SHSN BKN013 OVC020
      TEMPO 2819/2823 3SM -SN BR OVC012
     FM282300 14009KT 3SM -SN BR BKN008 OVC015
     FM290200 10008KT 2SM -SN BR OVC010
      TEMPO 2904/2907 1SM -SN BR OVC008
     FM290700 06011KT 3/4SM -SN BR OVC007
     FM291100 03010KT 1/4SM SN FZFG OVC004
     FM291700 07012KT 3/4SM -SN BR OVC007=

USA.gov is the U.S. government's official web portal to all federal, state and local government web resources and services.